Time;durP1;ratioP1;P1;durP2;ratioP2;P2;SDS_P1;SDS_P2;PMS_P1;PMS_P2;Temp;Humidity;BMP_temperature;BMP_pressure;BME280_temperature;BME280_humidity;BME280_pressure;Samples;Min_cycle;Max_cycle;Signal;HPM_P1;HPM_P2
2023/03/30 00:00:37;;;;;;;6.75;3.72;;;10.20;99.90;;;;;;4752383;30;20040;-85
2023/03/30 00:03:03;;;;;;;7.88;5.47;;;10.20;99.90;;;;;;4752487;30;20044;-85
2023/03/30 00:05:29;;;;;;;10.63;6.53;;;10.20;99.90;;;;;;4736562;30;20056;-85
2023/03/30 00:07:55;;;;;;;9.52;4.82;;;10.80;99.90;;;;;;4752300;30;20121;-85
2023/03/30 00:10:21;;;;;;;8.60;4.45;;;10.30;99.90;;;;;;4736715;30;20402;-85
2023/03/30 00:12:51;;;;;;;5.00;3.45;;;10.20;99.90;;;;;;4751969;30;20063;-87
2023/03/30 00:15:20;;;;;;;7.53;3.63;;;10.30;99.90;;;;;;4752423;30;20121;-85
2023/03/30 00:17:46;;;;;;;4.80;3.25;;;10.30;99.90;;;;;;4736557;30;20052;-85
2023/03/30 00:20:13;;;;;;;6.65;3.78;;;10.50;99.90;;;;;;4752305;30;20048;-85
2023/03/30 00:22:43;;;;;;;7.88;4.30;;;10.30;99.90;;;;;;4752261;30;20059;-85
2023/03/30 00:25:16;;;;;;;6.70;3.60;;;10.30;99.90;;;;;;4752380;30;20087;-86
2023/03/30 00:27:42;;;;;;;4.88;2.83;;;10.30;99.90;;;;;;4752336;30;20048;-85
2023/03/30 00:30:11;;;;;;;4.10;2.65;;;10.30;99.90;;;;;;4736395;30;20111;-85
2023/03/30 00:32:37;;;;;;;6.53;3.35;;;10.30;99.90;;;;;;4752011;30;20048;-86
2023/03/30 00:35:04;;;;;;;5.82;2.50;;;10.50;99.90;;;;;;4740894;30;20409;-85
2023/03/30 00:37:31;;;;;;;4.95;2.97;;;10.30;99.90;;;;;;4753906;30;20047;-85
2023/03/30 00:39:56;;;;;;;4.32;2.85;;;10.30;99.90;;;;;;4754036;30;20481;-85
2023/03/30 00:42:22;;;;;;;5.47;2.65;;;10.30;99.90;;;;;;4750536;30;20136;-85
2023/03/30 00:44:57;;;;;;;6.15;2.50;;;10.40;99.90;;;;;;4736499;30;20067;-85
2023/03/30 00:47:24;;;;;;;3.42;2.05;;;10.70;99.90;;;;;;4751453;30;20517;-85
2023/03/30 00:49:50;;;;;;;3.63;2.10;;;10.40;99.90;;;;;;4736108;30;20131;-85
2023/03/30 00:52:18;;;;;;;3.03;1.83;;;10.30;99.90;;;;;;4754036;30;20106;-85
2023/03/30 00:54:45;;;;;;;4.45;2.75;;;10.40;99.90;;;;;;4736684;30;20209;-85
2023/03/30 00:57:12;;;;;;;4.63;2.10;;;10.40;99.90;;;;;;4751480;30;20060;-85
2023/03/30 00:59:38;;;;;;;3.28;2.05;;;11.20;99.90;;;;;;4736087;30;20080;-85
2023/03/30 01:02:04;;;;;;;3.67;2.33;;;10.40;99.90;;;;;;4751548;30;20063;-84
2023/03/30 01:04:30;;;;;;;2.90;1.77;;;10.50;99.90;;;;;;4728833;30;20060;-85
2023/03/30 01:06:57;;;;;;;4.22;1.90;;;10.60;99.90;;;;;;4752247;30;20491;-85
2023/03/30 01:09:24;;;;;;;3.40;1.60;;;10.30;99.90;;;;;;4735271;30;20040;-85
2023/03/30 01:11:50;;;;;;;2.67;1.63;;;10.90;99.90;;;;;;4752134;30;20048;-86
2023/03/30 01:14:16;;;;;;;3.05;1.55;;;10.40;99.90;;;;;;4751676;30;20402;-85
2023/03/30 01:17:00;;;;;;;4.15;2.45;;;11.10;99.90;;;;;;4751801;30;20582;-85
2023/03/30 01:20:08;;;;;;;2.75;1.80;;;10.30;99.90;;;;;;4751193;30;20044;-85
2023/03/30 01:22:57;;;;;;;2.72;1.45;;;10.30;99.90;;;;;;4751680;30;20127;-85
2023/03/30 01:25:35;;;;;;;3.50;1.60;;;10.30;99.90;;;;;;4733672;30;20056;-85
2023/03/30 01:28:29;;;;;;;3.60;1.60;;;10.30;99.90;;;;;;4752391;30;20052;-85
2023/03/30 01:31:01;;;;;;;3.72;1.80;;;10.30;99.90;;;;;;4746276;30;20410;-86
2023/03/30 01:33:27;;;;;;;2.67;1.23;;;10.70;99.90;;;;;;4751166;30;20092;-85
2023/03/30 01:36:11;;;;;;;2.45;1.50;;;11.30;99.90;;;;;;4751263;30;20436;-85
2023/03/30 01:38:58;;;;;;;2.75;1.55;;;10.40;99.90;;;;;;4751295;30;20131;-86
2023/03/30 01:41:40;;;;;;;3.15;1.70;;;10.40;99.90;;;;;;4750978;30;20076;-85
2023/03/30 01:44:11;;;;;;;2.50;1.15;;;10.40;99.90;;;;;;4746921;30;20078;-86
2023/03/30 01:46:51;;;;;;;1.50;1.05;;;10.90;99.90;;;;;;4739454;30;20044;-87
2023/03/30 01:49:35;;;;;;;3.42;1.15;;;10.60;99.90;;;;;;4754703;30;20062;-86
2023/03/30 01:52:21;;;;;;;2.20;1.20;;;10.50;99.90;;;;;;4755007;30;20040;-86
2023/03/30 01:54:57;;;;;;;3.03;1.88;;;10.50;99.90;;;;;;4754160;30;20117;-86
2023/03/30 01:57:46;;;;;;;6.45;1.92;;;10.60;99.90;;;;;;4753767;30;20071;-86
2023/03/30 02:00:16;;;;;;;2.88;1.45;;;10.60;99.90;;;;;;4683058;30;20050;-86
2023/03/30 02:02:48;;;;;;;3.55;1.95;;;10.60;99.90;;;;;;4668657;30;20074;-86
2023/03/30 02:05:16;;;;;;;3.28;1.80;;;10.60;99.90;;;;;;4668820;30;20572;-86
2023/03/30 02:07:48;;;;;;;3.47;1.90;;;10.80;99.90;;;;;;4682710;30;20075;-85
2023/03/30 02:10:16;;;;;;;2.80;1.95;;;10.70;99.90;;;;;;4663633;30;20081;-85
2023/03/30 02:12:44;;;;;;;4.97;2.60;;;10.70;99.90;;;;;;4682612;30;20394;-85
2023/03/30 02:15:13;;;;;;;6.20;2.63;;;10.70;99.90;;;;;;4668564;30;20065;-87
2023/03/30 02:17:41;;;;;;;3.13;2.10;;;10.70;99.90;;;;;;4668036;30;20132;-85
2023/03/30 02:20:11;;;;;;;3.35;1.80;;;11.00;99.90;;;;;;4666080;30;20560;-86
2023/03/30 02:22:38;;;;;;;4.35;1.80;;;10.80;99.90;;;;;;4665949;30;20095;-86
2023/03/30 02:25:05;;;;;;;4.20;1.80;;;10.90;99.90;;;;;;4675158;30;20152;-86
2023/03/30 02:27:32;;;;;;;4.30;1.80;;;10.80;99.90;;;;;;4668179;30;20054;-85
2023/03/30 02:29:58;;;;;;;4.68;1.63;;;10.90;99.90;;;;;;4668369;30;20083;-86
2023/03/30 02:32:29;;;;;;;5.07;2.30;;;10.90;99.90;;;;;;4682312;30;20053;-85
2023/03/30 02:35:07;;;;;;;4.97;1.80;;;10.80;99.90;;;;;;4682661;30;20073;-86
2023/03/30 02:38:11;;;;;;;5.35;1.80;;;10.90;99.90;;;;;;4714466;30;20100;-86
2023/03/30 02:40:55;;;;;;;4.15;1.67;;;10.90;99.90;;;;;;4758385;30;20064;-85
2023/03/30 02:43:36;;;;;;;6.53;2.03;;;10.90;99.90;;;;;;4753660;30;20146;-85
2023/03/30 02:46:23;;;;;;;3.72;1.77;;;11.00;99.90;;;;;;4749046;30;20048;-86
2023/03/30 02:49:02;;;;;;;2.55;1.30;;;10.90;99.90;;;;;;4747169;30;20064;-86
2023/03/30 02:51:27;;;;;;;2.20;1.60;;;10.90;99.90;;;;;;4753133;30;20067;-85
2023/03/30 02:54:11;;;;;;;3.53;1.90;;;10.90;99.90;;;;;;4753844;30;20068;-86
2023/03/30 02:56:47;;;;;;;4.90;2.05;;;10.90;99.90;;;;;;4740729;30;20055;-85
2023/03/30 02:59:21;;;;;;;3.03;1.75;;;11.00;99.90;;;;;;4749939;30;20140;-85
2023/03/30 03:02:16;;;;;;;3.97;1.77;;;11.00;99.90;;;;;;4753104;30;20510;-85
2023/03/30 03:04:45;;;;;;;4.38;2.22;;;11.10;99.90;;;;;;4753663;30;21807;-86
2023/03/30 03:07:13;;;;;;;5.07;2.38;;;11.10;99.90;;;;;;4753445;30;20213;-86
2023/03/30 03:09:39;;;;;;;6.03;2.30;;;11.10;99.90;;;;;;4753942;30;20052;-86
2023/03/30 03:12:06;;;;;;;6.10;2.03;;;11.20;99.90;;;;;;4753530;30;20048;-86
2023/03/30 03:14:31;;;;;;;4.50;1.83;;;11.30;99.90;;;;;;4736868;30;20135;-85
2023/03/30 03:16:57;;;;;;;5.97;2.00;;;11.30;99.90;;;;;;4753281;30;20132;-86
2023/03/30 03:19:23;;;;;;;5.53;2.10;;;11.10;99.90;;;;;;4752418;30;20067;-86
2023/03/30 03:21:49;;;;;;;4.63;1.75;;;11.50;99.90;;;;;;4736991;30;20048;-86
2023/03/30 03:24:16;;;;;;;6.68;2.20;;;11.50;99.90;;;;;;4753589;30;20110;-85
2023/03/30 03:26:45;;;;;;;5.22;1.70;;;11.60;99.90;;;;;;4752820;30;20083;-85
2023/03/30 03:29:10;;;;;;;3.90;1.50;;;11.50;99.90;;;;;;4737210;30;20156;-85
2023/03/30 03:31:36;;;;;;;3.80;1.70;;;11.50;99.90;;;;;;4752825;30;20138;-86
2023/03/30 03:34:03;;;;;;;5.97;1.63;;;11.50;99.90;;;;;;4753192;30;20055;-85
2023/03/30 03:36:29;;;;;;;6.57;1.77;;;11.90;99.90;;;;;;4741233;30;20422;-85
2023/03/30 03:38:55;;;;;;;4.30;1.30;;;12.50;99.90;;;;;;4752890;30;20044;-85
2023/03/30 03:41:21;;;;;;;2.38;1.25;;;11.50;99.90;;;;;;4738421;30;20124;-85
2023/03/30 03:43:47;;;;;;;7.43;1.58;;;11.80;99.90;;;;;;4752457;30;20044;-85
2023/03/30 03:46:13;;;;;;;3.88;1.25;;;12.00;99.90;;;;;;4751619;30;20052;-85
2023/03/30 03:48:39;;;;;;;2.80;1.13;;;11.50;99.90;;;;;;4752533;30;20040;-85
2023/03/30 03:51:06;;;;;;;3.75;1.00;;;11.50;99.90;;;;;;4743670;30;20132;-85
2023/03/30 03:53:32;;;;;;;3.60;1.30;;;11.50;99.90;;;;;;4743886;30;20052;-85
2023/03/30 03:55:57;;;;;;;3.83;1.15;;;11.50;99.90;;;;;;4752091;30;20072;-86
2023/03/30 03:58:24;;;;;;;4.93;1.38;;;11.50;99.90;;;;;;4736898;30;20136;-86
2023/03/30 04:00:50;;;;;;;3.90;1.10;;;11.70;99.90;;;;;;4754780;30;20116;-85
2023/03/30 04:03:16;;;;;;;4.03;1.55;;;12.00;99.90;;;;;;4736992;30;20139;-85
2023/03/30 04:05:42;;;;;;;4.63;1.50;;;11.50;99.90;;;;;;4736680;30;20144;-85
2023/03/30 04:08:09;;;;;;;3.03;1.50;;;11.60;99.90;;;;;;4752034;30;20436;-85
2023/03/30 04:10:39;;;;;;;6.10;1.50;;;11.70;99.90;;;;;;4736615;30;20142;-85
2023/03/30 04:13:05;;;;;;;5.07;1.42;;;11.70;99.90;;;;;;4752148;30;20087;-85
2023/03/30 04:15:31;;;;;;;5.05;1.38;;;11.60;99.90;;;;;;4736543;30;20080;-85
2023/03/30 04:17:57;;;;;;;3.08;1.20;;;11.70;99.90;;;;;;4737043;30;20113;-85
2023/03/30 04:20:27;;;;;;;2.75;1.10;;;11.70;99.90;;;;;;4752516;30;20040;-85
2023/03/30 04:22:54;;;;;;;2.92;1.08;;;11.70;99.90;;;;;;4737209;30;20464;-85
2023/03/30 04:25:21;;;;;;;3.92;1.20;;;11.60;99.90;;;;;;4752401;30;20052;-85
2023/03/30 04:27:50;;;;;;;2.45;1.00;;;11.70;99.90;;;;;;4741499;30;20056;-85
2023/03/30 04:30:17;;;;;;;5.05;1.13;;;11.60;99.90;;;;;;4745415;30;20453;-86
2023/03/30 04:32:45;;;;;;;4.85;1.20;;;11.70;99.90;;;;;;4752198;30;20094;-85
2023/03/30 04:35:13;;;;;;;5.35;1.00;;;11.70;99.90;;;;;;4752156;30;20084;-86
2023/03/30 04:37:41;;;;;;;5.30;1.23;;;12.10;99.90;;;;;;4751994;30;20079;-86
2023/03/30 04:40:08;;;;;;;3.80;1.35;;;12.30;99.90;;;;;;4751562;30;20056;-85
2023/03/30 04:42:36;;;;;;;2.90;0.73;;;11.80;99.90;;;;;;4752212;30;20064;-85
2023/03/30 04:45:07;;;;;;;3.85;0.95;;;11.80;99.90;;;;;;4736219;30;20449;-85
2023/03/30 04:47:33;;;;;;;7.95;1.27;;;11.80;99.90;;;;;;4736848;30;20444;-85
2023/03/30 04:50:00;;;;;;;3.63;1.00;;;11.80;99.90;;;;;;4735864;30;20072;-85
2023/03/30 04:52:26;;;;;;;5.38;1.10;;;12.40;99.90;;;;;;4751936;30;20041;-85
2023/03/30 04:54:51;;;;;;;3.25;0.80;;;11.70;99.90;;;;;;4752041;30;20048;-85
2023/03/30 04:57:17;;;;;;;3.67;1.25;;;11.70;99.90;;;;;;4751472;30;20044;-85
2023/03/30 04:59:44;;;;;;;4.22;0.90;;;11.80;99.90;;;;;;4751871;30;20103;-85
2023/03/30 05:02:11;;;;;;;3.63;0.70;;;11.80;99.90;;;;;;4751410;30;20064;-85
2023/03/30 05:04:37;;;;;;;4.45;0.80;;;11.70;99.90;;;;;;4751934;30;20044;-86
2023/03/30 05:07:04;;;;;;;3.45;1.00;;;12.00;99.90;;;;;;4751746;30;20056;-85
2023/03/30 05:09:29;;;;;;;4.35;0.65;;;11.70;99.90;;;;;;4741089;30;20044;-86
2023/03/30 05:11:55;;;;;;;4.18;1.25;;;11.80;99.90;;;;;;4752616;30;20143;-85
2023/03/30 05:14:21;;;;;;;4.00;0.95;;;11.80;99.90;;;;;;4736098;30;20052;-85
2023/03/30 05:16:47;;;;;;;4.45;1.00;;;11.90;99.90;;;;;;4735688;30;20051;-86
2023/03/30 05:19:12;;;;;;;3.00;1.00;;;11.90;99.90;;;;;;4753364;30;20434;-86
2023/03/30 05:21:38;;;;;;;4.80;0.98;;;11.90;99.90;;;;;;4754947;30;20528;-86
2023/03/30 05:24:04;;;;;;;5.25;1.20;;;11.90;99.90;;;;;;4739035;30;20052;-85
2023/03/30 05:26:29;;;;;;;6.82;1.10;;;11.90;99.90;;;;;;4761251;30;20379;-85
2023/03/30 05:28:55;;;;;;;3.30;0.90;;;11.90;99.90;;;;;;4758469;30;20139;-85
2023/03/30 05:31:21;;;;;;;5.68;1.25;;;11.90;99.90;;;;;;4755093;30;20044;-86
2023/03/30 05:33:47;;;;;;;5.70;1.00;;;12.00;99.90;;;;;;4744687;30;20045;-85
2023/03/30 05:36:13;;;;;;;3.33;0.82;;;12.10;99.90;;;;;;4756161;30;20048;-85
2023/03/30 05:38:39;;;;;;;4.88;0.98;;;12.00;99.90;;;;;;4738430;30;20051;-85
2023/03/30 05:41:05;;;;;;;6.18;1.33;;;12.30;99.90;;;;;;4750444;30;20044;-85
2023/03/30 05:43:32;;;;;;;5.50;1.02;;;12.10;99.90;;;;;;4747126;30;20061;-85
2023/03/30 05:45:58;;;;;;;3.13;1.10;;;12.10;99.90;;;;;;4742613;30;20126;-85
2023/03/30 05:48:23;;;;;;;2.90;0.95;;;13.00;99.90;;;;;;4738786;30;20518;-85
2023/03/30 05:50:49;;;;;;;4.35;0.80;;;12.00;99.90;;;;;;4754924;30;20048;-86
2023/03/30 05:53:15;;;;;;;5.97;1.10;;;12.70;99.90;;;;;;4739342;30;20040;-85
2023/03/30 05:55:45;;;;;;;4.30;0.95;;;12.00;99.90;;;;;;4754673;30;20173;-85
2023/03/30 05:58:12;;;;;;;4.35;1.02;;;12.10;99.90;;;;;;4738873;30;20048;-85
2023/03/30 06:00:40;;;;;;;6.05;1.60;;;13.00;99.90;;;;;;4754222;30;20060;-85
2023/03/30 06:03:07;;;;;;;5.68;1.45;;;12.70;99.90;;;;;;4755498;30;20394;-85
2023/03/30 06:05:44;;;;;;;5.82;1.00;;;12.10;99.90;;;;;;4754432;30;20052;-84
2023/03/30 06:08:10;;;;;;;7.43;1.67;;;12.50;99.90;;;;;;4739274;30;20486;-83
2023/03/30 06:10:37;;;;;;;2.70;1.33;;;12.50;99.90;;;;;;4753807;30;20460;-85
2023/03/30 06:13:03;;;;;;;6.00;1.13;;;12.30;99.90;;;;;;4744517;30;20052;-85
2023/03/30 06:15:29;;;;;;;9.88;1.25;;;12.10;99.90;;;;;;4752969;30;20530;-84
2023/03/30 06:17:56;;;;;;;5.88;1.25;;;12.20;99.90;;;;;;4754487;30;20040;-83
2023/03/30 06:20:23;;;;;;;4.45;1.40;;;12.30;99.90;;;;;;4754768;30;20133;-82
2023/03/30 06:22:50;;;;;;;6.63;1.45;;;12.20;99.90;;;;;;4747105;30;20052;-83
2023/03/30 06:25:17;;;;;;;4.82;1.27;;;12.50;99.90;;;;;;4754337;30;20083;-83
2023/03/30 06:27:43;;;;;;;5.85;1.60;;;12.20;99.90;;;;;;4753776;30;20092;-83
2023/03/30 06:30:09;;;;;;;7.03;1.17;;;12.20;99.90;;;;;;4754103;30;20075;-83
2023/03/30 06:32:35;;;;;;;3.92;1.30;;;12.30;99.90;;;;;;4753933;30;20435;-84
2023/03/30 06:35:02;;;;;;;5.18;1.00;;;12.40;99.90;;;;;;4755022;30;20071;-83
2023/03/30 06:37:30;;;;;;;7.55;1.40;;;12.30;99.90;;;;;;4738391;30;20212;-81
2023/03/30 06:39:56;;;;;;;5.82;1.40;;;12.20;99.90;;;;;;4754546;30;20123;-83
2023/03/30 06:42:22;;;;;;;3.63;1.20;;;13.00;99.90;;;;;;4759205;30;20151;-83
2023/03/30 06:44:48;;;;;;;4.95;1.65;;;12.30;99.90;;;;;;4737822;30;20063;-83
2023/03/30 06:47:13;;;;;;;2.40;1.05;;;12.40;99.90;;;;;;4754773;30;20056;-83
2023/03/30 06:49:39;;;;;;;8.52;1.70;;;12.50;99.90;;;;;;4752102;30;20109;-81
2023/03/30 06:52:06;;;;;;;5.72;1.45;;;12.40;99.90;;;;;;4737607;30;20483;-83
2023/03/30 06:54:31;;;;;;;5.32;1.38;;;12.30;99.90;;;;;;4756884;30;20051;-83
2023/03/30 06:56:57;;;;;;;4.30;1.40;;;12.30;99.90;;;;;;4754218;30;20399;-83
2023/03/30 06:59:23;;;;;;;2.58;1.27;;;12.40;99.90;;;;;;4761064;30;20399;-83
2023/03/30 07:01:49;;;;;;;4.03;1.50;;;12.40;99.90;;;;;;4753442;30;20067;-84
2023/03/30 07:04:15;;;;;;;3.42;1.30;;;12.40;99.90;;;;;;4753605;30;20056;-83
2023/03/30 07:06:40;;;;;;;5.60;1.00;;;12.40;99.90;;;;;;4753496;30;20055;-85
2023/03/30 07:09:06;;;;;;;4.25;1.30;;;12.60;99.90;;;;;;4737622;30;20059;-83
2023/03/30 07:11:32;;;;;;;5.95;1.40;;;12.50;99.90;;;;;;4737500;30;20145;-87
2023/03/30 07:14:00;;;;;;;5.53;1.20;;;12.50;99.90;;;;;;4752974;30;20461;-85
2023/03/30 07:16:25;;;;;;;4.10;0.85;;;12.50;99.90;;;;;;4740018;30;20402;-85
2023/03/30 07:18:51;;;;;;;3.80;1.17;;;12.70;99.90;;;;;;4753351;30;20048;-84
2023/03/30 07:21:18;;;;;;;9.50;1.20;;;13.20;99.90;;;;;;4753855;30;20494;-84
2023/03/30 07:23:43;;;;;;;11.60;1.52;;;12.50;99.90;;;;;;4753943;30;20083;-84
2023/03/30 07:26:10;;;;;;;4.82;0.88;;;12.50;99.90;;;;;;4753930;30;20075;-85
2023/03/30 07:28:37;;;;;;;7.95;1.05;;;12.70;99.90;;;;;;4753775;30;20453;-84
2023/03/30 07:31:09;;;;;;;7.90;1.10;;;12.80;99.90;;;;;;4737948;30;20078;-84
2023/03/30 07:33:35;;;;;;;5.40;1.08;;;12.50;99.90;;;;;;4738118;30;20398;-84
2023/03/30 07:36:02;;;;;;;7.15;0.90;;;12.60;99.90;;;;;;4737890;30;20062;-85
2023/03/30 07:38:27;;;;;;;9.70;1.27;;;12.50;99.90;;;;;;4753688;30;20048;-85
2023/03/30 07:40:54;;;;;;;7.82;0.90;;;13.00;99.90;;;;;;4736958;30;20052;-84
2023/03/30 07:43:20;;;;;;;6.47;1.30;;;12.70;99.90;;;;;;4753146;30;20582;-84
2023/03/30 07:45:46;;;;;;;7.78;1.40;;;12.60;99.90;;;;;;4753382;30;20056;-85
2023/03/30 07:48:12;;;;;;;12.10;1.10;;;12.50;99.90;;;;;;4753490;30;20052;-84
2023/03/30 07:50:37;;;;;;;12.88;1.13;;;12.50;99.90;;;;;;4753406;30;20056;-84
2023/03/30 07:53:03;;;;;;;10.45;1.48;;;12.50;99.90;;;;;;4753224;30;20044;-84
2023/03/30 07:55:29;;;;;;;9.32;1.92;;;12.90;99.90;;;;;;4753350;30;20113;-85
2023/03/30 07:57:56;;;;;;;8.55;1.20;;;12.40;99.90;;;;;;4753268;30;20044;-85
2023/03/30 08:00:22;;;;;;;8.35;0.80;;;12.30;99.90;;;;;;4753380;30;20052;-85
2023/03/30 08:02:49;;;;;;;7.00;1.92;;;12.30;99.90;;;;;;4753324;30;20095;-84
2023/03/30 08:05:16;;;;;;;7.97;1.30;;;12.20;99.90;;;;;;4753314;30;20065;-84
2023/03/30 08:07:43;;;;;;;9.93;1.05;;;12.30;99.90;;;;;;4753485;30;20059;-84
2023/03/30 08:10:10;;;;;;;8.55;1.10;;;12.30;99.90;;;;;;4752964;30;20485;-85
2023/03/30 08:12:36;;;;;;;9.30;1.90;;;12.20;99.90;;;;;;4737272;30;20048;-84
2023/03/30 08:15:02;;;;;;;9.43;1.58;;;12.20;99.90;;;;;;4753027;30;20051;-84
2023/03/30 08:17:28;;;;;;;5.18;1.45;;;12.20;99.90;;;;;;4752965;30;20048;-85
2023/03/30 08:19:55;;;;;;;7.30;1.35;;;12.10;99.90;;;;;;4751830;30;20075;-85
2023/03/30 08:22:21;;;;;;;8.30;1.45;;;12.10;99.90;;;;;;4752976;30;20060;-85
2023/03/30 08:24:47;;;;;;;8.13;1.88;;;12.10;99.90;;;;;;4737857;30;20075;-84
2023/03/30 08:27:14;;;;;;;10.15;1.40;;;12.00;99.90;;;;;;4752858;30;20098;-84
2023/03/30 08:29:40;;;;;;;8.20;0.95;;;12.00;99.90;;;;;;4753389;30;20052;-85
2023/03/30 08:32:06;;;;;;;9.20;1.30;;;12.00;99.90;;;;;;4752770;30;20126;-85
2023/03/30 08:34:32;;;;;;;12.48;1.58;;;12.10;99.90;;;;;;4752727;30;20093;-85
2023/03/30 08:36:58;;;;;;;6.10;1.08;;;12.00;99.90;;;;;;4752845;30;20098;-84
2023/03/30 08:39:24;;;;;;;10.98;1.83;;;12.20;99.90;;;;;;4752585;30;20052;-85
2023/03/30 08:42:08;;;;;;;7.20;1.52;;;12.00;99.90;;;;;;4752633;30;20172;-85
2023/03/30 08:44:40;;;;;;;9.55;1.58;;;11.90;99.90;;;;;;4752765;30;20052;-85
2023/03/30 08:47:12;;;;;;;13.82;2.17;;;12.00;99.90;;;;;;4752635;30;20059;-84
2023/03/30 08:49:49;;;;;;;13.60;1.85;;;12.10;99.90;;;;;;4752802;30;20694;-85
2023/03/30 08:52:22;;;;;;;10.80;1.50;;;12.00;99.90;;;;;;4752369;30;20044;-85
2023/03/30 08:54:50;;;;;;;11.93;2.05;;;12.10;99.90;;;;;;4736476;30;20098;-84
2023/03/30 08:57:23;;;;;;;9.60;1.50;;;12.00;99.90;;;;;;4752709;30;20048;-84
2023/03/30 09:00:13;;;;;;;12.93;1.98;;;11.90;99.90;;;;;;4752651;30;20056;-84
2023/03/30 09:02:43;;;;;;;8.75;1.50;;;11.90;99.90;;;;;;4736471;30;20052;-85
2023/03/30 09:05:33;;;;;;;5.45;1.27;;;12.10;99.90;;;;;;4752367;30;20052;-85
2023/03/30 09:08:20;;;;;;;12.77;1.85;;;11.90;99.90;;;;;;4752231;30;20052;-85
2023/03/30 09:10:55;;;;;;;10.57;1.48;;;12.20;99.90;;;;;;4736478;30;20056;-86
2023/03/30 09:13:24;;;;;;;6.85;1.20;;;12.10;99.90;;;;;;4752375;30;20464;-85
2023/03/30 09:16:01;;;;;;;9.13;1.73;;;12.00;99.90;;;;;;4736471;30;20061;-85
2023/03/30 09:18:36;;;;;;;12.95;1.88;;;12.10;99.90;;;;;;4752446;30;20040;-85
2023/03/30 09:21:04;;;;;;;12.30;1.95;;;12.20;99.90;;;;;;4736565;30;20104;-84
2023/03/30 09:23:31;;;;;;;12.75;1.73;;;12.30;99.90;;;;;;4752182;30;20495;-85
2023/03/30 09:26:10;;;;;;;12.18;1.95;;;12.40;99.90;;;;;;4752314;30;20048;-85
2023/03/30 09:28:41;;;;;;;10.88;1.40;;;12.60;99.90;;;;;;4736497;30;20144;-85
2023/03/30 09:31:07;;;;;;;17.50;1.95;;;13.20;99.90;;;;;;4752258;30;20071;-85
2023/03/30 09:33:53;;;;;;;12.25;1.63;;;12.80;99.90;;;;;;4736405;30;20052;-85
2023/03/30 09:36:41;;;;;;;16.02;2.05;;;12.90;99.90;;;;;;4752249;30;20056;-85
2023/03/30 09:39:20;;;;;;;13.30;1.70;;;13.00;99.90;;;;;;4736346;30;20489;-84
2023/03/30 09:42:12;;;;;;;5.85;1.00;;;13.10;99.90;;;;;;4736045;30;20056;-85
2023/03/30 09:44:58;;;;;;;12.10;1.55;;;13.30;99.90;;;;;;4736369;30;20052;-85
2023/03/30 09:47:38;;;;;;;14.95;1.50;;;13.40;99.90;;;;;;4736417;30;20190;-85
2023/03/30 09:50:06;;;;;;;4.85;0.93;;;13.60;99.90;;;;;;4736439;30;20143;-85
2023/03/30 09:52:37;;;;;;;11.45;1.13;;;13.60;99.90;;;;;;4736041;30;20044;-86
2023/03/30 09:55:29;;;;;;;8.40;1.15;;;13.60;99.90;;;;;;4737784;30;20578;-83
2023/03/30 09:58:16;;;;;;;7.13;1.10;;;13.70;99.90;;;;;;4735560;30;20063;-85
2023/03/30 10:00:42;;;;;;;9.20;1.08;;;13.70;99.90;;;;;;4751354;30;20068;-83
2023/03/30 10:03:19;;;;;;;7.18;1.08;;;14.20;99.90;;;;;;4751355;30;20048;-84
2023/03/30 10:05:58;;;;;;;11.98;1.30;;;13.60;99.90;;;;;;4753968;30;20060;-84
2023/03/30 10:08:24;;;;;;;11.30;0.90;;;13.60;99.90;;;;;;4749373;30;20051;-85
2023/03/30 10:10:55;;;;;;;7.28;0.90;;;13.50;99.90;;;;;;4755779;30;20081;-85
2023/03/30 10:13:29;;;;;;;6.38;0.85;;;13.40;99.90;;;;;;4754848;30;20101;-85
2023/03/30 10:15:56;;;;;;;8.27;1.25;;;13.30;99.90;;;;;;4754347;30;20056;-86
2023/03/30 10:18:28;;;;;;;7.47;0.88;;;14.00;99.90;;;;;;4741170;30;20119;-83
2023/03/30 10:21:16;;;;;;;8.32;0.90;;;13.20;99.90;;;;;;4742304;30;20052;-86
2023/03/30 10:23:44;;;;;;;7.03;1.08;;;13.20;99.90;;;;;;4741486;30;20052;-86
2023/03/30 10:26:19;;;;;;;10.50;0.82;;;13.20;99.90;;;;;;4757499;30;20051;-89
2023/03/30 10:28:55;;;;;;;10.77;1.45;;;13.20;99.90;;;;;;4758402;30;20517;-84
2023/03/30 10:31:24;;;;;;;6.97;1.20;;;13.20;99.90;;;;;;4752294;30;20040;-86
2023/03/30 10:33:58;;;;;;;7.38;0.80;;;13.30;99.90;;;;;;4753433;30;20056;-84
2023/03/30 10:36:37;;;;;;;4.45;0.70;;;13.40;99.90;;;;;;4750586;30;20367;-85
2023/03/30 10:39:12;;;;;;;8.88;0.80;;;13.30;99.90;;;;;;4759453;30;20411;-84
2023/03/30 10:41:40;;;;;;;;;;;13.40;99.90;;;;;;4754482;30;20060;-84
2023/03/30 10:44:22;;;;;;;7.50;0.80;;;13.30;99.90;;;;;;4752983;30;19926;-84
2023/03/30 10:46:51;;;;;;;9.20;1.05;;;13.30;99.90;;;;;;4753862;30;20131;-85
2023/03/30 10:49:55;;;;;;;5.88;0.90;;;13.00;99.90;;;;;;4738462;30;20044;-85
2023/03/30 10:52:55;;;;;;;9.45;1.05;;;13.40;99.90;;;;;;4674943;30;20113;-84
2023/03/30 10:55:24;;;;;;;9.27;1.25;;;13.40;99.90;;;;;;4668456;30;20061;-85
2023/03/30 10:58:01;;;;;;;10.48;1.13;;;13.40;99.90;;;;;;4682154;30;20054;-86
2023/03/30 11:00:51;;;;;;;4.95;0.88;;;13.50;99.90;;;;;;4681907;30;20501;-84
2023/03/30 11:03:21;;;;;;;12.75;1.20;;;13.50;99.90;;;;;;4660927;30;20060;-83
2023/03/30 11:05:51;;;;;;;9.23;1.00;;;13.70;99.90;;;;;;4656872;30;20085;-84
2023/03/30 11:08:26;;;;;;;7.68;1.08;;;13.40;99.90;;;;;;4660365;30;20055;-86
2023/03/30 11:10:55;;;;;;;13.18;1.58;;;14.10;99.90;;;;;;4656467;30;20081;-86
2023/03/30 11:13:29;;;;;;;12.23;2.47;;;13.50;99.90;;;;;;4657495;30;20493;-84
2023/03/30 11:16:00;;;;;;;10.30;2.30;;;13.80;99.90;;;;;;4673270;30;20065;-85
2023/03/30 11:18:46;;;;;;;8.00;1.80;;;13.50;99.90;;;;;;4657673;30;20057;-85
2023/03/30 11:21:16;;;;;;;11.13;1.48;;;13.50;99.90;;;;;;4648321;30;20109;-86
2023/03/30 11:23:51;;;;;;;14.75;1.23;;;13.50;99.90;;;;;;4637469;30;20051;-85
2023/03/30 11:26:26;;;;;;;15.32;1.63;;;13.60;99.90;;;;;;4677509;30;20046;-85
2023/03/30 11:29:01;;;;;;;14.90;1.20;;;13.70;99.90;;;;;;4687654;30;20064;-85
2023/03/30 11:31:48;;;;;;;10.98;1.30;;;13.80;99.90;;;;;;4697963;30;20055;-86
2023/03/30 11:34:56;;;;;;;8.85;1.55;;;13.80;99.90;;;;;;4685282;30;20089;-85
2023/03/30 11:37:31;;;;;;;13.98;1.52;;;13.70;99.90;;;;;;4714083;30;20079;-86
2023/03/30 11:40:26;;;;;;;12.07;1.23;;;13.80;99.90;;;;;;4708000;30;20056;-86
2023/03/30 11:42:52;;;;;;;11.52;1.55;;;13.80;99.90;;;;;;4693909;30;20057;-85
2023/03/30 11:45:33;;;;;;;5.63;0.90;;;13.80;99.90;;;;;;4666403;30;20054;-85
2023/03/30 11:48:25;;;;;;;11.23;1.88;;;13.90;99.90;;;;;;4661615;30;20062;-85
2023/03/30 11:51:06;;;;;;;13.63;1.17;;;13.90;99.90;;;;;;4675686;30;20049;-86
2023/03/30 11:53:53;;;;;;;11.88;1.40;;;14.00;99.90;;;;;;4668103;30;20062;-85
2023/03/30 11:56:25;;;;;;;9.57;1.38;;;14.10;99.90;;;;;;4683919;30;20056;-84
2023/03/30 11:59:16;;;;;;;9.93;1.48;;;14.20;99.90;;;;;;4681278;30;20082;-83
2023/03/30 12:01:53;;;;;;;9.73;1.48;;;14.20;99.90;;;;;;4680745;30;20070;-84
2023/03/30 12:04:46;;;;;;;8.13;0.90;;;14.20;99.90;;;;;;4681103;30;20050;-86
2023/03/30 12:07:38;;;;;;;9.23;1.05;;;14.20;99.90;;;;;;4674203;30;20050;-84
2023/03/30 12:10:13;;;;;;;8.98;1.30;;;14.20;99.90;;;;;;4665954;30;20060;-88
2023/03/30 12:12:40;;;;;;;8.05;1.40;;;14.30;99.90;;;;;;4680954;30;20062;-84
2023/03/30 12:15:39;;;;;;;8.20;1.58;;;14.40;99.90;;;;;;4680296;30;20472;-85
2023/03/30 12:18:18;;;;;;;11.80;1.50;;;14.60;99.90;;;;;;4679719;30;20061;-84
2023/03/30 12:21:11;;;;;;;10.98;1.33;;;14.70;99.90;;;;;;4724220;30;20561;-84
2023/03/30 12:23:55;;;;;;;6.85;1.20;;;14.80;99.90;;;;;;4728623;30;20060;-86
2023/03/30 12:26:25;;;;;;;11.00;2.65;;;14.70;99.90;;;;;;4718277;30;20144;-88
2023/03/30 12:29:03;;;;;;;11.82;1.40;;;14.70;99.90;;;;;;4718725;30;20056;-83
2023/03/30 12:31:49;;;;;;;7.93;1.40;;;14.70;99.90;;;;;;4734195;30;20065;-85
2023/03/30 12:34:15;;;;;;;6.50;0.85;;;14.70;99.90;;;;;;4716387;30;20506;-85
2023/03/30 12:36:48;;;;;;;10.20;1.10;;;14.70;99.90;;;;;;4719031;30;20052;-84
2023/03/30 12:39:24;;;;;;;12.43;1.02;;;14.80;99.90;;;;;;4719260;30;20109;-84
2023/03/30 12:42:03;;;;;;;8.73;1.55;;;14.80;99.90;;;;;;4735222;30;20037;-84
2023/03/30 12:44:40;;;;;;;14.45;2.45;;;14.70;99.90;;;;;;4752479;30;20521;-83
2023/03/30 12:47:24;;;;;;;8.70;1.13;;;14.80;99.90;;;;;;4752699;30;20056;-84
2023/03/30 12:49:55;;;;;;;9.95;1.27;;;14.80;99.90;;;;;;4752715;30;20052;-85
2023/03/30 12:52:42;;;;;;;9.32;1.60;;;14.90;99.90;;;;;;4736917;30;20078;-84
2023/03/30 12:55:26;;;;;;;8.25;1.52;;;14.70;99.90;;;;;;4752597;30;20106;-84
2023/03/30 12:58:03;;;;;;;8.70;1.00;;;14.70;99.90;;;;;;4736534;30;20056;-84
2023/03/30 13:00:48;;;;;;;11.98;1.33;;;14.80;99.90;;;;;;4752393;30;20055;-83
2023/03/30 13:03:32;;;;;;;9.27;1.30;;;14.80;99.90;;;;;;4752473;30;20541;-84
2023/03/30 13:05:59;;;;;;;12.90;1.20;;;15.00;99.90;;;;;;4752492;30;20058;-84
2023/03/30 13:08:37;;;;;;;12.65;1.60;;;15.40;99.90;;;;;;4752400;30;20105;-85